Time;durP1;ratioP1;P1;durP2;ratioP2;P2;SDS_P1;SDS_P2;PMS_P1;PMS_P2;Temp;Humidity;BMP_temperature;BMP_pressure;BME280_temperature;BME280_humidity;BME280_pressure;Samples;Min_cycle;Max_cycle;Signal;HPM_P1;HPM_P2
2022/06/22 00:00:29;;;;;;;;;;;;;;;;;;4944784;29;19926;-80
2022/06/22 00:02:55;;;;;;;;;;;;;;;;;;4944276;29;19911;-80
2022/06/22 00:05:20;;;;;;;;;;;;;;;;;;4977146;28;19918;-80
2022/06/22 00:07:49;;;;;;;;;;;;;;;;;;4943953;29;20404;-80
2022/06/22 00:10:14;;;;;;;;;;;;;;;;;;4958829;29;20001;-80
2022/06/22 00:12:39;;;;;;;;;;;;;;;;;;4960726;28;19914;-80
2022/06/22 00:15:05;;;;;;;;;;;;;;;;;;4939537;29;19962;-78
2022/06/22 00:17:30;;;;;;;;;;;;;;;;;;4960971;28;20005;-79
2022/06/22 00:19:55;;;;;;;;;;;;;;;;;;4961213;29;19914;-80
2022/06/22 00:22:21;;;;;;;;;;;;;;;;;;4960909;28;19914;-81
2022/06/22 00:24:46;;;;;;;;;;;;;;;;;;4960189;28;19962;-79
2022/06/22 00:27:11;;;;;;;;;;;;;;;;;;4926394;29;20492;-79
2022/06/22 00:29:38;;;;;;;;;;;;;;;;;;4954670;28;19915;-81
2022/06/22 00:32:03;;;;;;;;;;;;;;;;;;4960820;28;19915;-81
2022/06/22 00:34:28;;;;;;;;;;;;;;;;;;4959394;28;19921;-81
2022/06/22 00:36:54;;;;;;;;;;;;;;;;;;4943360;29;19919;-79
2022/06/22 00:39:20;;;;;;;;;;;;;;;;;;4963115;28;19930;-80
2022/06/22 00:41:45;;;;;;;;;;;;;;;;;;4960569;29;19960;-81
2022/06/22 00:44:10;;;;;;;;;;;;;;;;;;4955092;28;20005;-79
2022/06/22 00:46:36;;;;;;;;;;;;;;;;;;4943158;28;19957;-80
2022/06/22 00:49:04;;;;;;;;;;;;;;;;;;4970069;28;19922;-80
2022/06/22 00:51:30;;;;;;;;;;;;;;;;;;4939372;29;20067;-79
2022/06/22 00:53:56;;;;;;;;;;;;;;;;;;4953303;28;19970;-80
2022/06/22 00:56:22;;;;;;;;;;;;;;;;;;4952020;29;19918;-81
2022/06/22 00:58:47;;;;;;;;;;;;;;;;;;4949955;28;19983;-80
2022/06/22 01:01:13;;;;;;;;;;;;;;;;;;4973164;28;20009;-80
2022/06/22 01:03:41;;;;;;;;;;;;;;;;;;4955797;28;19922;-82
2022/06/22 01:06:06;;;;;;;;;;;;;;;;;;4936146;29;19915;-81
2022/06/22 01:08:31;;;;;;;;;;;;;;;;;;4952716;29;19918;-82
2022/06/22 01:10:57;;;;;;;;;;;;;;;;;;4951573;28;19934;-81
2022/06/22 01:13:22;;;;;;;;;;;;;;;;;;4945887;28;20517;-80
2022/06/22 01:15:47;;;;;;;;;;;;;;;;;;4959321;28;19918;-80
2022/06/22 01:18:13;;;;;;;;;;;;;;;;;;4958906;28;19921;-80
2022/06/22 01:20:38;;;;;;;;;;;;;;;;;;4976887;28;20341;-80
2022/06/22 01:23:03;;;;;;;;;;;;;;;;;;4976724;28;19940;-80
2022/06/22 01:25:29;;;;;;;;;;;;;;;;;;4958718;28;19914;-81
2022/06/22 01:27:54;;;;;;;;;;;;;;;;;;4944579;28;19925;-80
2022/06/22 01:30:20;;;;;;;;;;;;;;;;;;4944645;29;19914;-81
2022/06/22 01:32:45;;;;;;;;;;;;;;;;;;4957372;29;20017;-80
2022/06/22 01:35:10;;;;;;;;;;;;;;;;;;4956470;29;20289;-80
2022/06/22 01:37:36;;;;;;;;;;;;;;;;;;4956560;29;19914;-80
2022/06/22 01:40:01;;;;;;;;;;;;;;;;;;4956661;28;19915;-81
2022/06/22 01:42:27;;;;;;;;;;;;;;;;;;4955160;28;19915;-82
2022/06/22 01:44:52;;;;;;;;;;;;;;;;;;4944737;29;19914;-81
2022/06/22 01:47:17;;;;;;;;;;;;;;;;;;4946070;28;19914;-81
2022/06/22 01:49:43;;;;;;;;;;;;;;;;;;4956524;28;19924;-82
2022/06/22 01:52:08;;;;;;;;;;;;;;;;;;4939528;29;20424;-83
2022/06/22 01:54:34;;;;;;;;;;;;;;;;;;4957950;28;20017;-82
2022/06/22 01:56:59;;;;;;;;;;;;;;;;;;4956423;29;20068;-81
2022/06/22 01:59:24;;;;;;;;;;;;;;;;;;4956751;28;20351;-81
2022/06/22 02:01:50;;;;;;;;;;;;;;;;;;4956308;29;19914;-82
2022/06/22 02:04:15;;;;;;;;;;;;;;;;;;4958781;28;19918;-85
2022/06/22 02:09:25;;;;;;;;;;;;;;;;;;4956788;28;19922;-83
2022/06/22 02:11:50;;;;;;;;;;;;;;;;;;4938964;29;20325;-84
2022/06/22 02:14:16;;;;;;;;;;;;;;;;;;4924661;29;19919;-83
2022/06/22 02:16:42;;;;;;;;;;;;;;;;;;4938971;29;20306;-81
2022/06/22 02:19:07;;;;;;;;;;;;;;;;;;4955224;29;19920;-81
2022/06/22 02:21:32;;;;;;;;;;;;;;;;;;4953590;29;20057;-81
2022/06/22 02:24:00;;;;;;;;;;;;;;;;;;4955121;28;19914;-80
2022/06/22 02:26:25;;;;;;;;;;;;;;;;;;4957301;28;19954;-80
2022/06/22 02:28:50;;;;;;;;;;;;;;;;;;4956038;28;19985;-79
2022/06/22 02:31:17;;;;;;;;;;;;;;;;;;4955458;29;20285;-82
2022/06/22 02:33:42;;;;;;;;;;;;;;;;;;4954042;28;20384;-81
2022/06/22 02:36:07;;;;;;;;;;;;;;;;;;4955222;29;19915;-80
2022/06/22 02:38:33;;;;;;;;;;;;;;;;;;4939231;29;19915;-80
2022/06/22 02:46:29;;;;;;;;;;;;;;;;;;4938675;29;20011;-81
2022/06/22 02:48:55;;;;;;;;;;;;;;;;;;4954064;29;20005;-81
2022/06/22 02:51:20;;;;;;;;;;;;;;;;;;4955273;29;19918;-81
2022/06/22 02:53:46;;;;;;;;;;;;;;;;;;4953946;28;20266;-81
2022/06/22 02:56:11;;;;;;;;;;;;;;;;;;4949596;29;20002;-81
2022/06/22 02:58:39;;;;;;;;;;;;;;;;;;4955513;29;19961;-82
2022/06/22 03:01:05;;;;;;;;;;;;;;;;;;4955434;29;19914;-81
2022/06/22 03:03:30;;;;;;;;;;;;;;;;;;4954725;28;20346;-80
2022/06/22 03:05:56;;;;;;;;;;;;;;;;;;4938326;29;20006;-80
2022/06/22 03:08:21;;;;;;;;;;;;;;;;;;4950860;28;20298;-81
2022/06/22 03:10:47;;;;;;;;;;;;;;;;;;4936219;29;19915;-80
2022/06/22 03:13:15;;;;;;;;;;;;;;;;;;4943268;29;19969;-80
2022/06/22 03:15:40;;;;;;;;;;;;;;;;;;4955173;29;19934;-79
2022/06/22 03:18:06;;;;;;;;;;;;;;;;;;4955453;29;19915;-79
2022/06/22 03:20:31;;;;;;;;;;;;;;;;;;4953956;29;20008;-80
2022/06/22 03:22:57;;;;;;;;;;;;;;;;;;4953468;29;19918;-79
2022/06/22 03:25:22;;;;;;;;;;;;;;;;;;4954628;28;19914;-80
2022/06/22 03:27:47;;;;;;;;;;;;;;;;;;4954535;28;19925;-79
2022/06/22 03:30:13;;;;;;;;;;;;;;;;;;4945804;29;20219;-80
2022/06/22 03:32:38;;;;;;;;;;;;;;;;;;4942965;29;19922;-80
2022/06/22 03:35:03;;;;;;;;;;;;;;;;;;4953013;28;19914;-79
2022/06/22 03:37:29;;;;;;;;;;;;;;;;;;4953407;29;20005;-82
2022/06/22 03:39:54;;;;;;;;;;;;;;;;;;4953883;29;19925;-81
2022/06/22 03:42:20;;;;;;;;;;;;;;;;;;4954316;29;19961;-83
2022/06/22 03:44:46;;;;;;;;;;;;;;;;;;4937834;29;20344;-82
2022/06/22 03:47:11;;;;;;;;;;;;;;;;;;4950222;29;19915;-78
2022/06/22 03:49:36;;;;;;;;;;;;;;;;;;4918047;29;20297;-80
2022/06/22 03:52:02;;;;;;;;;;;;;;;;;;4918663;29;19915;-78
2022/06/22 03:54:27;;;;;;;;;;;;;;;;;;4935249;29;19942;-79
2022/06/22 03:56:52;;;;;;;;;;;;;;;;;;4934173;29;20363;-82
2022/06/22 03:59:18;;;;;;;;;;;;;;;;;;4918407;29;20277;-83
2022/06/22 04:01:43;;;;;;;;;;;;;;;;;;4935448;29;19915;-81
2022/06/22 04:04:09;;;;;;;;;;;;;;;;;;4932162;29;19914;-83
2022/06/22 04:06:34;;;;;;;;;;;;;;;;;;4942999;29;19925;-82
2022/06/22 04:09:00;;;;;;;;;;;;;;;;;;4940748;29;19925;-81
2022/06/22 04:11:25;;;;;;;;;;;;;;;;;;4937025;29;20352;-82
2022/06/22 04:13:50;;;;;;;;;;;;;;;;;;4938212;29;20423;-83
2022/06/22 04:16:17;;;;;;;;;;;;;;;;;;4937204;29;20006;-81
2022/06/22 04:18:42;;;;;;;;;;;;;;;;;;4954296;28;19925;-82
2022/06/22 04:21:07;;;;;;;;;;;;;;;;;;4957601;29;19914;-87
2022/06/22 04:23:33;;;;;;;;;;;;;;;;;;4954111;28;20370;-82
2022/06/22 04:25:58;;;;;;;;;;;;;;;;;;4959354;29;19922;-82
2022/06/22 04:28:24;;;;;;;;;;;;;;;;;;4958250;29;19918;-83
2022/06/22 04:30:49;;;;;;;;;;;;;;;;;;4925961;29;20411;-84
2022/06/22 04:33:14;;;;;;;;;;;;;;;;;;4925308;28;19954;-85
2022/06/22 04:35:40;;;;;;;;;;;;;;;;;;4955581;29;19914;-83
2022/06/22 04:38:05;;;;;;;;;;;;;;;;;;4941228;29;19970;-81
2022/06/22 04:40:33;;;;;;;;;;;;;;;;;;4940490;29;20005;-83
2022/06/22 04:42:59;;;;;;;;;;;;;;;;;;4955862;29;20014;-82
2022/06/22 04:45:25;;;;;;;;;;;;;;;;;;4956484;28;19919;-81
2022/06/22 04:47:50;;;;;;;;;;;;;;;;;;4957480;29;19919;-81
2022/06/22 04:50:16;;;;;;;;;;;;;;;;;;4940614;29;19941;-81
2022/06/22 04:52:44;;;;;;;;;;;;;;;;;;4946191;29;19922;-83
2022/06/22 04:55:09;;;;;;;;;;;;;;;;;;4956914;29;19914;-81
2022/06/22 04:57:35;;;;;;;;;;;;;;;;;;4957894;29;20388;-82
2022/06/22 05:00:00;;;;;;;;;;;;;;;;;;4939948;29;20297;-82
2022/06/22 05:02:31;;;;;;;;;;;;;;;;;;4924542;29;19946;-82
2022/06/22 05:04:57;;;;;;;;;;;;;;;;;;4939811;29;19926;-80
2022/06/22 05:07:22;;;;;;;;;;;;;;;;;;4923816;29;19915;-82
2022/06/22 05:09:47;;;;;;;;;;;;;;;;;;4922995;29;19997;-82
2022/06/22 05:12:13;;;;;;;;;;;;;;;;;;4955315;29;20339;-82
2022/06/22 05:14:39;;;;;;;;;;;;;;;;;;4956409;28;20314;-82
2022/06/22 05:17:04;;;;;;;;;;;;;;;;;;4956981;28;19961;-81
2022/06/22 05:19:33;;;;;;;;;;;;;;;;;;4956434;29;20324;-80
2022/06/22 05:21:58;;;;;;;;;;;;;;;;;;4955613;29;19918;-81
2022/06/22 05:24:24;;;;;;;;;;;;;;;;;;4956098;28;20358;-79
2022/06/22 05:26:49;;;;;;;;;;;;;;;;;;4955599;29;19915;-80
2022/06/22 05:29:17;;;;;;;;;;;;;;;;;;4953257;28;20385;-80
2022/06/22 05:31:44;;;;;;;;;;;;;;;;;;4941015;29;19945;-81
2022/06/22 05:34:09;;;;;;;;;;;;;;;;;;4971629;28;19915;-80
2022/06/22 05:36:35;;;;;;;;;;;;;;;;;;4956517;29;20269;-81
2022/06/22 05:39:00;;;;;;;;;;;;;;;;;;4971432;28;19993;-80
2022/06/22 05:41:29;;;;;;;;;;;;;;;;;;4942841;29;19918;-79
2022/06/22 05:44:14;;;;;;;;;;;;;;;;;;4970468;28;20050;-80
2022/06/22 05:46:39;;;;;;;;;;;;;;;;;;4959834;28;19946;-81
2022/06/22 05:49:04;;;;;;;;;;;;;;;;;;4946469;29;19919;-81
2022/06/22 05:51:30;;;;;;;;;;;;;;;;;;4971980;28;19943;-79
2022/06/22 05:53:55;;;;;;;;;;;;;;;;;;4956145;29;20366;-81
2022/06/22 05:56:24;;;;;;;;;;;;;;;;;;4971661;28;19959;-80
2022/06/22 05:58:49;;;;;;;;;;;;;;;;;;4955716;29;19979;-80
2022/06/22 06:01:14;;;;;;;;;;;;;;;;;;4971308;28;19965;-81
2022/06/22 06:03:40;;;;;;;;;;;;;;;;;;4946913;29;20009;-81
2022/06/22 06:06:15;;;;;;;;;;;;;;;;;;4955429;29;20436;-81
2022/06/22 06:08:40;;;;;;;;;;;;;;;;;;4961198;28;20094;-80
2022/06/22 06:11:05;;;;;;;;;;;;;;;;;;4939472;29;19914;-81
2022/06/22 06:13:31;;;;;;;;;;;;;;;;;;4923383;29;19930;-82
2022/06/22 06:15:56;;;;;;;;;;;;;;;;;;5002079;23;19968;-86
2022/06/22 06:18:21;;;;;;;;;;;;;;;;;;4980527;28;19941;-86
2022/06/22 06:20:48;;;;;;;;;;;;;;;;;;4979770;28;20000;-86
2022/06/22 06:23:13;;;;;;;;;;;;;;;;;;4998085;28;19920;-85
2022/06/22 06:28:24;;;;;;;;;;;;;;;;;;4966069;28;19918;-86
2022/06/22 06:30:49;;;;;;;;;;;;;;;;;;4982537;28;19917;-86
2022/06/22 06:33:14;;;;;;;;;;;;;;;;;;4989161;28;19918;-85
2022/06/22 06:35:40;;;;;;;;;;;;;;;;;;4971706;28;19997;-85
2022/06/22 06:38:05;;;;;;;;;;;;;;;;;;4951764;28;19911;-86
2022/06/22 06:40:31;;;;;;;;;;;;;;;;;;4984015;28;19915;-84
2022/06/22 06:42:56;;;;;;;;;;;;;;;;;;4961348;28;19914;-88
2022/06/22 06:45:22;;;;;;;;;;;;;;;;;;4974320;28;20444;-87
2022/06/22 06:47:47;;;;;;;;;;;;;;;;;;4975802;28;20409;-86
2022/06/22 06:50:12;;;;;;;;;;;;;;;;;;4945851;28;20137;-85
2022/06/22 06:52:38;;;;;;;;;;;;;;;;;;4972926;28;20406;-84
2022/06/22 06:55:03;;;;;;;;;;;;;;;;;;4996345;28;19928;-92
2022/06/22 06:57:29;;;;;;;;;;;;;;;;;;4949040;28;20369;-86
2022/06/22 06:59:54;;;;;;;;;;;;;;;;;;4961328;28;19953;-87
2022/06/22 07:02:19;;;;;;;;;;;;;;;;;;4980298;28;20362;-86
2022/06/22 07:04:45;;;;;;;;;;;;;;;;;;4978098;28;19936;-85
2022/06/22 07:07:10;;;;;;;;;;;;;;;;;;4996889;28;20281;-86
2022/06/22 07:09:36;;;;;;;;;;;;;;;;;;4979366;28;19945;-89
2022/06/22 07:12:01;;;;;;;;;;;;;;;;;;4965089;28;19921;-85
2022/06/22 07:14:26;;;;;;;;;;;;;;;;;;4983062;28;19982;-84
2022/06/22 07:16:52;;;;;;;;;;;;;;;;;;4987502;28;20319;-84
2022/06/22 07:19:17;;;;;;;;;;;;;;;;;;4994322;28;19921;-85
2022/06/22 07:21:43;;;;;;;;;;;;;;;;;;4994325;28;20393;-84
2022/06/22 07:24:08;;;;;;;;;;;;;;;;;;4992148;28;20020;-88
2022/06/22 07:26:34;;;;;;;;;;;;;;;;;;4993656;28;19960;-88
2022/06/22 07:28:59;;;;;;;;;;;;;;;;;;4977011;28;19918;-86
2022/06/22 07:31:24;;;;;;;;;;;;;;;;;;4992136;28;19918;-82
2022/06/22 07:33:50;;;;;;;;;;;;;;;;;;4975471;28;19914;-81
2022/06/22 07:36:15;;;;;;;;;;;;;;;;;;4991516;28;19914;-81
2022/06/22 07:38:41;;;;;;;;;;;;;;;;;;4992692;28;19913;-81
2022/06/22 07:41:18;;;;;;;;;;;;;;;;;;4990965;28;19957;-82
2022/06/22 07:43:44;;;;;;;;;;;;;;;;;;4988369;28;20427;-84
2022/06/22 07:46:09;;;;;;;;;;;;;;;;;;4983009;28;20008;-84
2022/06/22 07:48:34;;;;;;;;;;;;;;;;;;4991356;28;19922;-83
2022/06/22 07:51:00;;;;;;;;;;;;;;;;;;4991665;28;19914;-86
2022/06/22 07:53:25;;;;;;;;;;;;;;;;;;4976870;28;20017;-85
2022/06/22 07:55:51;;;;;;;;;;;;;;;;;;4979066;28;19936;-85
2022/06/22 07:58:16;;;;;;;;;;;;;;;;;;4998733;28;20354;-84
2022/06/22 08:00:44;;;;;;;;;;;;;;;;;;4981698;28;20357;-86
2022/06/22 08:03:10;;;;;;;;;;;;;;;;;;4996960;28;19961;-87
2022/06/22 08:05:35;;;;;;;;;;;;;;;;;;4965397;28;19918;-87
2022/06/22 08:08:00;;;;;;;;;;;;;;;;;;4991983;28;19973;-87
2022/06/22 08:10:26;;;;;;;;;;;;;;;;;;4963245;28;19914;-86
2022/06/22 08:12:51;;;;;;;;;;;;;;;;;;4962986;28;19922;-87
2022/06/22 08:15:17;;;;;;;;;;;;;;;;;;4967660;28;19914;-90
2022/06/22 08:17:42;;;;;;;;;;;;;;;;;;4953246;28;20400;-87
2022/06/22 08:20:08;;;;;;;;;;;;;;;;;;4935297;28;19914;-84
2022/06/22 08:22:34;;;;;;;;;;;;;;;;;;4985354;28;20337;-86
2022/06/22 08:24:59;;;;;;;;;;;;;;;;;;4966580;28;20292;-86
2022/06/22 08:27:24;;;;;;;;;;;;;;;;;;4972276;28;20286;-86
2022/06/22 08:29:50;;;;;;;;;;;;;;;;;;4989094;28;19914;-84
2022/06/22 08:32:15;;;;;;;;;;;;;;;;;;4987051;28;19918;-84
2022/06/22 08:34:41;;;;;;;;;;;;;;;;;;4986029;28;19914;-84
2022/06/22 08:37:07;;;;;;;;;;;;;;;;;;4982768;28;20294;-83
2022/06/22 08:39:32;;;;;;;;;;;;;;;;;;4987328;28;19924;-87
2022/06/22 08:41:59;;;;;;;;;;;;;;;;;;4978833;28;19910;-88
2022/06/22 08:44:24;;;;;;;;;;;;;;;;;;4981224;28;19925;-86
2022/06/22 08:46:50;;;;;;;;;;;;;;;;;;4979010;28;19981;-81
2022/06/22 08:49:15;;;;;;;;;;;;;;;;;;4997896;28;19914;-85
2022/06/22 08:51:40;;;;;;;;;;;;;;;;;;5011968;28;19899;-84
2022/06/22 08:54:06;;;;;;;;;;;;;;;;;;4997934;28;19921;-86
2022/06/22 08:56:31;;;;;;;;;;;;;;;;;;4980915;28;19921;-82
2022/06/22 08:58:57;;;;;;;;;;;;;;;;;;4982140;28;19898;-86
2022/06/22 09:01:22;;;;;;;;;;;;;;;;;;4975778;28;19929;-81
2022/06/22 09:03:48;;;;;;;;;;;;;;;;;;4944896;28;19903;-81
2022/06/22 09:06:13;;;;;;;;;;;;;;;;;;4972509;28;19918;-82
2022/06/22 09:08:39;;;;;;;;;;;;;;;;;;4991893;28;19985;-83
2022/06/22 09:11:04;;;;;;;;;;;;;;;;;;4997715;28;19925;-82
2022/06/22 09:13:30;;;;;;;;;;;;;;;;;;4947278;28;19914;-78
2022/06/22 09:15:55;;;;;;;;;;;;;;;;;;4934158;28;19932;-79
2022/06/22 09:18:20;;;;;;;;;;;;;;;;;;4993546;28;19914;-79
2022/06/22 09:20:46;;;;;;;;;;;;;;;;;;4959070;28;19917;-78
2022/06/22 09:23:11;;;;;;;;;;;;;;;;;;4991331;28;20300;-77
2022/06/22 09:25:37;;;;;;;;;;;;;;;;;;4988427;28;19914;-78
2022/06/22 09:28:03;;;;;;;;;;;;;;;;;;4989146;28;19925;-78
2022/06/22 09:30:28;;;;;;;;;;;;;;;;;;4958738;28;19922;-78
2022/06/22 09:32:53;;;;;;;;;;;;;;;;;;4976509;28;19914;-77
2022/06/22 09:35:19;;;;;;;;;;;;;;;;;;4991411;28;20017;-78
2022/06/22 09:37:44;;;;;;;;;;;;;;;;;;4962877;28;19920;-79
2022/06/22 09:40:10;;;;;;;;;;;;;;;;;;4984007;28;19914;-78
2022/06/22 09:42:35;;;;;;;;;;;;;;;;;;4991789;28;19968;-79
2022/06/22 09:45:02;;;;;;;;;;;;;;;;;;4967489;28;20400;-78
2022/06/22 09:47:27;;;;;;;;;;;;;;;;;;4977864;28;19929;-78
2022/06/22 09:49:53;;;;;;;;;;;;;;;;;;4993433;28;19913;-78
2022/06/22 09:52:18;;;;;;;;;;;;;;;;;;4976668;28;20013;-78
2022/06/22 09:57:28;;;;;;;;;;;;;;;;;;4993609;28;19914;-78
2022/06/22 09:59:53;;;;;;;;;;;;;;;;;;4994254;28;20254;-82
2022/06/22 10:02:18;;;;;;;;;;;;;;;;;;4977522;28;20331;-85
2022/06/22 10:04:44;;;;;;;;;;;;;;;;;;4991227;28;19921;-82
2022/06/22 10:07:09;;;;;;;;;;;;;;;;;;4979018;28;20385;-85
2022/06/22 10:09:35;;;;;;;;;;;;;;;;;;4963028;28;19928;-85
2022/06/22 10:12:00;;;;;;;;;;;;;;;;;;4994901;28;19949;-86
2022/06/22 10:14:26;;;;;;;;;;;;;;;;;;4996261;28;19918;-85
2022/06/22 10:16:51;;;;;;;;;;;;;;;;;;4994120;28;19917;-84
2022/06/22 10:19:16;;;;;;;;;;;;;;;;;;4969654;28;19968;-85
2022/06/22 10:21:42;;;;;;;;;;;;;;;;;;4986300;28;19914;-84
2022/06/22 10:24:07;;;;;;;;;;;;;;;;;;4992620;28;20369;-86
2022/06/22 10:26:33;;;;;;;;;;;;;;;;;;4992196;28;20270;-85
2022/06/22 10:28:58;;;;;;;;;;;;;;;;;;4992247;28;20003;-85
2022/06/22 10:31:24;;;;;;;;;;;;;;;;;;4993165;28;19933;-84
2022/06/22 10:33:49;;;;;;;;;;;;;;;;;;4990287;28;20237;-84
2022/06/22 10:36:15;;;;;;;;;;;;;;;;;;4989747;28;19922;-85
2022/06/22 10:38:40;;;;;;;;;;;;;;;;;;4989848;28;19922;-85
2022/06/22 10:46:37;;;;;;;;;;;;;;;;;;4974211;28;19968;-83
2022/06/22 10:49:03;;;;;;;;;;;;;;;;;;4986908;28;20353;-84
2022/06/22 10:51:28;;;;;;;;;;;;;;;;;;4991117;28;19914;-86
2022/06/22 10:53:53;;;;;;;;;;;;;;;;;;4971645;28;19949;-80
2022/06/22 10:56:20;;;;;;;;;;;;;;;;;;4992265;28;19914;-82
2022/06/22 10:58:46;;;;;;;;;;;;;;;;;;4991778;28;19918;-84
2022/06/22 11:01:11;;;;;;;;;;;;;;;;;;4992867;28;19921;-83
2022/06/22 11:03:36;;;;;;;;;;;;;;;;;;4992185;28;20352;-82
2022/06/22 11:06:02;;;;;;;;;;;;;;;;;;4992803;28;19957;-84
2022/06/22 11:08:27;;;;;;;;;;;;;;;;;;4992203;28;19918;-82
2022/06/22 11:10:53;;;;;;;;;;;;;;;;;;4991051;28;19921;-83
2022/06/22 11:13:18;;;;;;;;;;;;;;;;;;4972447;28;19918;-83
2022/06/22 11:15:44;;;;;;;;;;;;;;;;;;4975424;28;20276;-85
2022/06/22 11:18:09;;;;;;;;;;;;;;;;;;4991854;28;19920;-83
2022/06/22 11:20:35;;;;;;;;;;;;;;;;;;4974809;28;19921;-85
2022/06/22 11:23:02;;;;;;;;;;;;;;;;;;4994927;28;19921;-84
2022/06/22 11:31:16;;;;;;;;;;;;;;;;;;4954909;28;19926;-84
2022/06/22 11:33:42;;;;;;;;;;;;;;;;;;4966856;28;19914;-84
2022/06/22 11:36:07;;;;;;;;;;;;;;;;;;4991798;28;20380;-83
2022/06/22 11:38:35;;;;;;;;;;;;;;;;;;4971779;28;20424;-85
2022/06/22 11:41:00;;;;;;;;;;;;;;;;;;4957294;28;20001;-83
2022/06/22 11:43:26;;;;;;;;;;;;;;;;;;4959388;28;20056;-83
2022/06/22 11:45:51;;;;;;;;;;;;;;;;;;4998345;28;19960;-86
2022/06/22 11:48:17;;;;;;;;;;;;;;;;;;4992279;28;19924;-84
2022/06/22 11:50:42;;;;;;;;;;;;;;;;;;4959337;28;20396;-85
2022/06/22 11:53:08;;;;;;;;;;;;;;;;;;4992230;28;20400;-85
2022/06/22 11:55:42;;;;;;;;;;;;;;;;;;4976190;28;19913;-84
2022/06/22 11:58:27;;;;;;;;;;;;;;;;;;4990041;28;19994;-85
2022/06/22 12:00:52;;;;;;;;;;;;;;;;;;4975442;28;20004;-84
2022/06/22 12:03:18;;;;;;;;;;;;;;;;;;4992714;28;19918;-83
2022/06/22 12:05:44;;;;;;;;;;;;;;;;;;4992535;28;19928;-84
2022/06/22 12:08:10;;;;;;;;;;;;;;;;;;4992822;28;19918;-85
2022/06/22 12:10:35;;;;;;;;;;;;;;;;;;4992846;28;19917;-85
2022/06/22 12:13:01;;;;;;;;;;;;;;;;;;4963650;28;19914;-84
2022/06/22 12:15:27;;;;;;;;;;;;;;;;;;4989945;28;20377;-84
2022/06/22 12:17:52;;;;;;;;;;;;;;;;;;4968292;28;19918;-84
2022/06/22 12:20:18;;;;;;;;;;;;;;;;;;4972486;28;20440;-85
2022/06/22 12:22:43;;;;;;;;;;;;;;;;;;4975843;28;20420;-85
2022/06/22 12:25:09;;;;;;;;;;;;;;;;;;4955606;23;19933;-82
2022/06/22 12:27:37;;;;;;;;;;;;;;;;;;4921532;29;20338;-82
2022/06/22 12:30:03;;;;;;;;;;;;;;;;;;4936795;29;19914;-82
2022/06/22 12:32:28;;;;;;;;;;;;;;;;;;4936938;29;19922;-82
2022/06/22 12:35:00;;;;;;;;;;;;;;;;;;4928599;29;19923;-82
2022/06/22 12:37:30;;;;;;;;;;;;;;;;;;4893774;29;19915;-82
2022/06/22 12:39:56;;;;;;;;;;;;;;;;;;4887314;29;19938;-81
2022/06/22 12:42:21;;;;;;;;;;;;;;;;;;4920829;29;20287;-81
2022/06/22 12:44:47;;;;;;;;;;;;;;;;;;4933944;29;20298;-81
2022/06/22 12:47:15;;;;;;;;;;;;;;;;;;4906901;29;19926;-80
2022/06/22 12:49:41;;;;;;;;;;;;;;;;;;4935765;29;19969;-80
2022/06/22 12:52:06;;;;;;;;;;;;;;;;;;4931004;29;19915;-83
2022/06/22 12:54:32;;;;;;;;;;;;;;;;;;4923599;29;20019;-81
2022/06/22 12:56:58;;;;;;;;;;;;;;;;;;4919553;29;19922;-81
2022/06/22 12:59:23;;;;;;;;;;;;;;;;;;4924794;29;19973;-81
2022/06/22 13:01:59;;;;;;;;;;;;;;;;;;4921029;29;19915;-81
2022/06/22 13:04:27;;;;;;;;;;;;;;;;;;4920736;29;19919;-83
2022/06/22 13:07:02;;;;;;;;;;;;;;;;;;4926159;29;19982;-83
2022/06/22 13:09:28;;;;;;;;;;;;;;;;;;4948672;29;20298;-82
2022/06/22 13:11:54;;;;;;;;;;;;;;;;;;4892483;29;20033;-82
2022/06/22 13:14:21;;;;;;;;;;;;;;;;;;4924235;29;19919;-83
2022/06/22 13:16:46;;;;;;;;;;;;;;;;;;4921001;29;19961;-83
2022/06/22 13:19:12;;;;;;;;;;;;;;;;;;4910330;29;19916;-83
2022/06/22 13:21:41;;;;;;;;;;;;;;;;;;4895698;29;19923;-82
2022/06/22 13:24:07;;;;;;;;;;;;;;;;;;4908831;29;19926;-81
2022/06/22 13:26:32;;;;;;;;;;;;;;;;;;4906497;29;20365;-82
2022/06/22 13:28:58;;;;;;;;;;;;;;;;;;4923269;29;19926;-83
2022/06/22 13:31:24;;;;;;;;;;;;;;;;;;4886194;29;19941;-82
2022/06/22 13:33:50;;;;;;;;;;;;;;;;;;4905363;29;19958;-82
2022/06/22 13:36:15;;;;;;;;;;;;;;;;;;4921855;29;19919;-81
2022/06/22 13:38:41;;;;;;;;;;;;;;;;;;4922528;29;20390;-82
2022/06/22 13:41:24;;;;;;;;;;;;;;;;;;4914952;29;19918;-82
2022/06/22 13:43:58;;;;;;;;;;;;;;;;;;4891830;29;19916;-82
2022/06/22 13:46:24;;;;;;;;;;;;;;;;;;4907704;29;19925;-82
2022/06/22 13:48:50;;;;;;;;;;;;;;;;;;4906954;29;19951;-80
2022/06/22 13:51:20;;;;;;;;;;;;;;;;;;4908334;29;19923;-81
2022/06/22 13:53:52;;;;;;;;;;;;;;;;;;4922394;29;19934;-81
2022/06/22 13:56:18;;;;;;;;;;;;;;;;;;4921415;29;20002;-80
2022/06/22 13:58:44;;;;;;;;;;;;;;;;;;4933380;29;19965;-81
2022/06/22 14:01:10;;;;;;;;;;;;;;;;;;4924570;29;20018;-80
2022/06/22 14:03:37;;;;;;;;;;;;;;;;;;4906975;29;19946;-82
2022/06/22 14:06:11;;;;;;;;;;;;;;;;;;4912126;29;19919;-81
2022/06/22 14:08:37;;;;;;;;;;;;;;;;;;4922551;29;19919;-81
2022/06/22 14:11:03;;;;;;;;;;;;;;;;;;4924712;29;19915;-83
2022/06/22 14:13:29;;;;;;;;;;;;;;;;;;4897000;29;19915;-82
2022/06/22 14:15:54;;;;;;;;;;;;;;;;;;4927558;29;19971;-81
2022/06/22 14:18:20;;;;;;;;;;;;;;;;;;4915360;29;19922;-79
2022/06/22 14:20:45;;;;;;;;;;;;;;;;;;4925193;29;19919;-81
2022/06/22 14:23:11;;;;;;;;;;;;;;;;;;4936488;29;19938;-79
2022/06/22 14:25:37;;;;;;;;;;;;;;;;;;4925749;29;20167;-81
2022/06/22 14:28:02;;;;;;;;;;;;;;;;;;4950971;29;20018;-82
2022/06/22 14:30:28;;;;;;;;;;;;;;;;;;4915969;29;20291;-82
2022/06/22 14:32:53;;;;;;;;;;;;;;;;;;4904716;29;19961;-81
2022/06/22 14:35:19;;;;;;;;;;;;;;;;;;4938963;29;20053;-82
2022/06/22 14:37:44;;;;;;;;;;;;;;;;;;4919044;29;19969;-81
2022/06/22 14:40:10;;;;;;;;;;;;;;;;;;4904074;29;19915;-81
2022/06/22 14:42:39;;;;;;;;;;;;;;;;;;4903125;29;19915;-82
2022/06/22 14:45:04;;;;;;;;;;;;;;;;;;4915486;29;20357;-81
2022/06/22 14:47:30;;;;;;;;;;;;;;;;;;4911692;29;20018;-81
2022/06/22 14:49:56;;;;;;;;;;;;;;;;;;4915470;29;19978;-82
2022/06/22 14:52:21;;;;;;;;;;;;;;;;;;4918321;29;20343;-81
2022/06/22 14:54:47;;;;;;;;;;;;;;;;;;4887223;29;19923;-82
2022/06/22 14:57:13;;;;;;;;;;;;;;;;;;4924487;29;19915;-81
2022/06/22 14:59:39;;;;;;;;;;;;;;;;;;4903238;29;20298;-82
2022/06/22 15:02:04;;;;;;;;;;;;;;;;;;4937261;29;19918;-80
2022/06/22 15:04:30;;;;;;;;;;;;;;;;;;4912485;29;19923;-80
2022/06/22 15:06:56;;;;;;;;;;;;;;;;;;4887288;29;19915;-82
2022/06/22 15:09:22;;;;;;;;;;;;;;;;;;4921324;29;20315;-83
2022/06/22 15:14:32;;;;;;;;;;;;;;;;;;4917095;29;19915;-82
2022/06/22 15:16:57;;;;;;;;;;;;;;;;;;4921206;29;19998;-82
2022/06/22 15:19:23;;;;;;;;;;;;;;;;;;4907129;29;19994;-83
2022/06/22 15:21:48;;;;;;;;;;;;;;;;;;4925598;29;19922;-82
2022/06/22 15:24:14;;;;;;;;;;;;;;;;;;4907554;29;19923;-83
2022/06/22 15:26:40;;;;;;;;;;;;;;;;;;4888074;29;19946;-81
2022/06/22 15:29:06;;;;;;;;;;;;;;;;;;4907994;29;19919;-81
2022/06/22 15:31:32;;;;;;;;;;;;;;;;;;4890210;29;19998;-81
2022/06/22 15:33:57;;;;;;;;;;;;;;;;;;4904665;29;19919;-82
2022/06/22 15:36:23;;;;;;;;;;;;;;;;;;4935557;29;19950;-82
2022/06/22 15:38:49;;;;;;;;;;;;;;;;;;4916041;29;20327;-82
2022/06/22 15:41:15;;;;;;;;;;;;;;;;;;4889978;29;19919;-83
2022/06/22 15:43:41;;;;;;;;;;;;;;;;;;4887468;29;19924;-82
2022/06/22 15:46:08;;;;;;;;;;;;;;;;;;4917066;29;19915;-82
2022/06/22 15:48:34;;;;;;;;;;;;;;;;;;4928092;29;19971;-81
2022/06/22 15:51:05;;;;;;;;;;;;;;;;;;4903268;29;19938;-82
2022/06/22 15:53:30;;;;;;;;;;;;;;;;;;4907004;29;19965;-81
2022/06/22 15:55:56;;;;;;;;;;;;;;;;;;4910126;29;20347;-82
2022/06/22 15:58:21;;;;;;;;;;;;;;;;;;4910587;29;19992;-81
2022/06/22 16:00:47;;;;;;;;;;;;;;;;;;4918246;29;19923;-81
2022/06/22 16:03:13;;;;;;;;;;;;;;;;;;4904787;29;19919;-83
2022/06/22 16:05:38;;;;;;;;;;;;;;;;;;4902813;29;19923;-81
2022/06/22 16:08:04;;;;;;;;;;;;;;;;;;4902105;29;20021;-81
2022/06/22 16:10:30;;;;;;;;;;;;;;;;;;4940887;29;19915;-81
2022/06/22 16:15:41;;;;;;;;;;;;;;;;;;4921520;29;19921;-80
2022/06/22 16:18:06;;;;;;;;;;;;;;;;;;4921317;29;20353;-81
2022/06/22 16:20:32;;;;;;;;;;;;;;;;;;4936863;29;19921;-81
2022/06/22 16:22:57;;;;;;;;;;;;;;;;;;4920847;29;20014;-82
2022/06/22 16:25:23;;;;;;;;;;;;;;;;;;4922116;29;19919;-81
2022/06/22 16:27:49;;;;;;;;;;;;;;;;;;4928167;29;19919;-80
2022/06/22 16:30:17;;;;;;;;;;;;;;;;;;4894575;29;19922;-80
2022/06/22 16:32:43;;;;;;;;;;;;;;;;;;4889605;29;19998;-80
2022/06/22 16:35:09;;;;;;;;;;;;;;;;;;4938458;29;20465;-81
2022/06/22 16:37:35;;;;;;;;;;;;;;;;;;4921729;29;20013;-80
2022/06/22 16:40:01;;;;;;;;;;;;;;;;;;4904786;29;19955;-81
2022/06/22 16:42:29;;;;;;;;;;;;;;;;;;4920135;29;19950;-82
2022/06/22 16:44:58;;;;;;;;;;;;;;;;;;4916370;29;19915;-81
2022/06/22 16:47:24;;;;;;;;;;;;;;;;;;4929759;29;20318;-80
2022/06/22 16:49:50;;;;;;;;;;;;;;;;;;4920490;29;20242;-81
2022/06/22 16:52:16;;;;;;;;;;;;;;;;;;4904836;29;19992;-81
2022/06/22 16:54:42;;;;;;;;;;;;;;;;;;4920211;29;19915;-83
2022/06/22 16:57:08;;;;;;;;;;;;;;;;;;4922167;29;19938;-82
2022/06/22 16:59:33;;;;;;;;;;;;;;;;;;4921965;29;19922;-81
2022/06/22 17:01:59;;;;;;;;;;;;;;;;;;4925534;29;19934;-83
2022/06/22 17:04:25;;;;;;;;;;;;;;;;;;4942273;29;19919;-81
2022/06/22 17:06:55;;;;;;;;;;;;;;;;;;4906727;29;19918;-81